Time;durP1;ratioP1;P1;durP2;ratioP2;P2;SDS_P1;SDS_P2;PMS_P1;PMS_P2;Temp;Humidity;BMP_temperature;BMP_pressure;BME280_temperature;BME280_humidity;BME280_pressure;Samples;Min_cycle;Max_cycle;Signal;HPM_P1;HPM_P2
2021/12/19 00:01:15;;;;;;;7.33;4.47;;;10.20;99.90;;;;;;5056374;28;20417;-75
2021/12/19 00:04:13;;;;;;;10.40;4.95;;;10.10;99.90;;;;;;5059878;28;20411;-74
2021/12/19 00:09:24;;;;;;;7.25;4.40;;;10.10;99.90;;;;;;5065204;28;20407;-74
2021/12/19 00:11:50;;;;;;;6.80;4.43;;;10.10;99.90;;;;;;5043433;28;20437;-74
2021/12/19 00:14:18;;;;;;;5.90;3.73;;;10.00;99.90;;;;;;5061817;28;20500;-75
2021/12/19 00:16:43;;;;;;;5.57;3.70;;;10.10;99.90;;;;;;5055720;28;20419;-75
2021/12/19 00:19:09;;;;;;;6.57;3.92;;;10.00;99.90;;;;;;5045823;28;20423;-75
2021/12/19 00:21:35;;;;;;;8.43;4.10;;;10.00;99.90;;;;;;5058545;28;20457;-74
2021/12/19 00:24:01;;;;;;;9.63;4.18;;;10.00;99.90;;;;;;5042133;28;20903;-75
2021/12/19 00:26:27;;;;;;;7.30;4.22;;;10.00;99.90;;;;;;5059243;28;20420;-75
2021/12/19 00:28:53;;;;;;;5.27;3.73;;;10.00;99.90;;;;;;5060954;28;20428;-75
2021/12/19 00:31:20;;;;;;;6.70;4.27;;;10.00;99.90;;;;;;5060887;28;20513;-75
2021/12/19 00:33:45;;;;;;;8.95;4.50;;;10.00;99.90;;;;;;5062489;28;21015;-74
2021/12/19 00:36:11;;;;;;;8.30;4.40;;;10.00;99.90;;;;;;5058881;28;20471;-75
2021/12/19 00:38:37;;;;;;;8.35;4.40;;;10.00;99.90;;;;;;5065534;28;20417;-74
2021/12/19 00:41:04;;;;;;;7.13;4.38;;;10.00;99.90;;;;;;5061844;28;20497;-74
2021/12/19 00:43:35;;;;;;;7.90;4.40;;;10.10;99.90;;;;;;5048271;28;20399;-74
2021/12/19 00:46:10;;;;;;;7.30;4.20;;;10.10;99.90;;;;;;5062194;28;20510;-74
2021/12/19 00:48:38;;;;;;;6.55;3.67;;;10.10;99.90;;;;;;5063999;28;20423;-74
2021/12/19 00:51:05;;;;;;;6.32;3.90;;;10.10;99.90;;;;;;5070046;28;20434;-74
2021/12/19 00:53:31;;;;;;;8.35;3.95;;;10.00;99.90;;;;;;5066444;28;20458;-74
2021/12/19 00:55:57;;;;;;;7.18;3.80;;;10.10;99.90;;;;;;5063816;28;20419;-74
2021/12/19 00:58:22;;;;;;;7.60;4.00;;;10.00;99.90;;;;;;5047493;28;20426;-74
2021/12/19 01:00:48;;;;;;;8.63;4.50;;;10.00;99.90;;;;;;5058564;28;20419;-74
2021/12/19 01:03:14;;;;;;;10.23;4.83;;;10.00;99.90;;;;;;5065335;28;20418;-74
2021/12/19 01:05:41;;;;;;;7.80;5.00;;;10.10;99.90;;;;;;5063768;28;20403;-74
2021/12/19 01:08:08;;;;;;;11.48;5.30;;;10.10;99.90;;;;;;5076855;28;20470;-73
2021/12/19 01:10:35;;;;;;;8.70;4.90;;;10.20;99.90;;;;;;5064498;28;20412;-74
2021/12/19 01:13:02;;;;;;;9.82;5.50;;;10.20;99.90;;;;;;5047080;28;20930;-76
2021/12/19 01:15:29;;;;;;;8.27;5.47;;;10.20;99.90;;;;;;5063649;28;21214;-74
2021/12/19 01:17:55;;;;;;;10.50;5.00;;;10.20;99.90;;;;;;5075090;28;20194;-74
2021/12/19 01:20:25;;;;;;;9.32;4.53;;;9.70;99.90;;;;;;5065199;28;20537;-74
2021/12/19 01:22:52;;;;;;;9.95;4.78;;;9.40;99.90;;;;;;5066990;28;20243;-74
2021/12/19 01:25:17;;;;;;;11.00;4.63;;;9.20;99.90;;;;;;5049990;28;20182;-74
2021/12/19 01:27:44;;;;;;;10.65;4.82;;;9.10;99.90;;;;;;5043100;28;20193;-74
2021/12/19 01:30:10;;;;;;;10.75;4.93;;;9.00;99.90;;;;;;5066609;28;20666;-75
2021/12/19 01:32:37;;;;;;;12.55;6.32;;;8.90;99.90;;;;;;5064952;28;20194;-74
2021/12/19 01:35:04;;;;;;;15.32;6.00;;;8.80;99.90;;;;;;5078284;28;20202;-75
2021/12/19 01:37:30;;;;;;;17.25;6.63;;;8.80;99.90;;;;;;5070010;28;20182;-73
2021/12/19 01:39:56;;;;;;;14.38;5.57;;;8.80;99.90;;;;;;5065558;28;20179;-73
2021/12/19 01:42:28;;;;;;;14.75;6.97;;;8.70;99.90;;;;;;5050937;28;20260;-74
2021/12/19 01:44:54;;;;;;;12.75;6.50;;;8.70;99.90;;;;;;5076451;28;20187;-74
2021/12/19 01:47:21;;;;;;;11.82;5.57;;;8.70;99.90;;;;;;5051185;28;20189;-74
2021/12/19 01:49:46;;;;;;;16.52;6.45;;;8.70;99.90;;;;;;5056705;28;20657;-73
2021/12/19 01:52:12;;;;;;;12.98;6.55;;;8.70;99.90;;;;;;5067938;28;20191;-73
2021/12/19 01:54:38;;;;;;;16.23;5.72;;;8.60;99.90;;;;;;5051012;28;20610;-73
2021/12/19 01:57:03;;;;;;;18.52;5.57;;;8.60;99.90;;;;;;5068511;28;20236;-74
2021/12/19 01:59:29;;;;;;;11.27;5.30;;;8.60;99.90;;;;;;5070014;28;20643;-72
2021/12/19 02:01:56;;;;;;;20.38;6.25;;;8.60;99.90;;;;;;5068226;28;20201;-72
2021/12/19 02:04:23;;;;;;;12.73;6.28;;;8.60;99.90;;;;;;5069660;28;20186;-73
2021/12/19 02:06:49;;;;;;;24.65;5.78;;;8.60;99.90;;;;;;5049383;28;20253;-73
2021/12/19 02:09:17;;;;;;;15.73;6.40;;;8.60;99.90;;;;;;5069737;28;20279;-72
2021/12/19 02:11:43;;;;;;;18.58;5.93;;;8.60;99.90;;;;;;5068685;28;20960;-74
2021/12/19 02:14:10;;;;;;;13.50;5.93;;;8.60;99.90;;;;;;5069763;28;20187;-73
2021/12/19 02:16:40;;;;;;;15.18;5.50;;;8.60;99.90;;;;;;5070393;28;20275;-74
2021/12/19 02:19:07;;;;;;;6.70;4.03;;;8.60;99.90;;;;;;5069218;28;20194;-73
2021/12/19 02:21:33;;;;;;;6.97;3.65;;;8.60;99.90;;;;;;5068178;28;20194;-73
2021/12/19 02:24:05;;;;;;;5.63;3.60;;;8.60;99.90;;;;;;5069781;28;20182;-73
2021/12/19 02:26:31;;;;;;;7.35;4.13;;;8.60;99.90;;;;;;5067887;28;20738;-73
2021/12/19 02:28:56;;;;;;;7.05;4.05;;;8.60;99.90;;;;;;5069847;28;20206;-73
2021/12/19 02:31:22;;;;;;;6.55;3.70;;;8.60;99.90;;;;;;5067176;28;20265;-74
2021/12/19 02:36:50;;;;;;;6.03;3.78;;;8.60;99.90;;;;;;5072022;28;20224;-74
2021/12/19 02:50:01;;;;;;;4.55;2.80;;;8.60;99.90;;;;;;5068310;28;20646;-73
2021/12/19 02:52:27;;;;;;;4.50;3.00;;;8.60;99.90;;;;;;5060613;28;20190;-74
2021/12/19 02:54:52;;;;;;;3.97;2.78;;;8.60;99.90;;;;;;5082762;28;20655;-73
2021/12/19 02:57:19;;;;;;;5.90;3.30;;;8.60;99.90;;;;;;5039742;28;20218;-73
2021/12/19 02:59:44;;;;;;;6.88;3.75;;;8.60;99.90;;;;;;5043498;28;20226;-74
2021/12/19 03:02:10;;;;;;;6.18;3.20;;;8.60;99.90;;;;;;5059236;28;20651;-75
2021/12/19 03:04:36;;;;;;;6.57;4.00;;;8.60;99.90;;;;;;5063587;28;20187;-74
2021/12/19 03:07:02;;;;;;;6.68;4.18;;;8.60;99.90;;;;;;5059395;28;20198;-74
2021/12/19 03:10:03;;;;;;;8.88;4.47;;;8.60;99.90;;;;;;5067320;28;20667;-74
2021/12/19 03:12:29;;;;;;;11.77;5.38;;;8.60;99.90;;;;;;5059220;28;20199;-73
2021/12/19 03:17:58;;;;;;;14.50;5.53;;;8.60;99.90;;;;;;5045951;28;20222;-73
2021/12/19 03:20:29;;;;;;;11.90;5.45;;;8.60;99.90;;;;;;5046125;28;20197;-74
2021/12/19 03:22:58;;;;;;;7.00;4.82;;;8.60;99.90;;;;;;5064478;28;20569;-73
2021/12/19 03:25:24;;;;;;;10.43;4.57;;;8.60;99.90;;;;;;5062770;28;20261;-73
2021/12/19 03:27:50;;;;;;;7.50;3.67;;;8.60;99.90;;;;;;5063565;28;20328;-74
2021/12/19 03:30:17;;;;;;;7.20;3.45;;;8.60;99.90;;;;;;5065631;28;20563;-74
2021/12/19 03:32:42;;;;;;;6.13;3.00;;;8.60;99.90;;;;;;5060828;28;20194;-74
2021/12/19 03:35:09;;;;;;;4.40;3.00;;;8.60;99.90;;;;;;5067301;28;20631;-73
2021/12/19 03:37:35;;;;;;;4.95;2.88;;;8.60;99.90;;;;;;5061608;28;20216;-73
2021/12/19 03:40:09;;;;;;;4.45;2.92;;;8.60;99.90;;;;;;5046697;28;20210;-74
2021/12/19 03:42:43;;;;;;;4.32;2.60;;;8.60;99.90;;;;;;5041208;28;20222;-73
2021/12/19 03:45:12;;;;;;;5.30;2.50;;;8.60;99.90;;;;;;5063849;28;20178;-73
2021/12/19 03:47:39;;;;;;;4.65;2.30;;;8.60;99.90;;;;;;5045921;28;20214;-73
2021/12/19 03:50:07;;;;;;;5.65;2.60;;;8.60;99.90;;;;;;5065619;28;20186;-73
2021/12/19 03:52:33;;;;;;;6.72;3.13;;;8.60;99.90;;;;;;5045515;28;20558;-73
2021/12/19 03:55:00;;;;;;;6.80;2.83;;;8.60;99.90;;;;;;5045966;28;20195;-73
2021/12/19 03:57:26;;;;;;;5.15;2.97;;;8.60;99.90;;;;;;5062525;28;20209;-73
2021/12/19 03:59:51;;;;;;;5.90;2.92;;;8.60;99.90;;;;;;5048583;28;20189;-73
2021/12/19 04:02:24;;;;;;;6.25;3.25;;;8.60;99.90;;;;;;5042198;28;20655;-73
2021/12/19 04:04:51;;;;;;;7.72;3.65;;;8.60;99.90;;;;;;5065766;28;20194;-74
2021/12/19 04:07:17;;;;;;;4.68;2.05;;;8.60;99.90;;;;;;5064263;28;20199;-73
2021/12/19 04:09:43;;;;;;;4.82;2.60;;;8.60;99.90;;;;;;5065133;28;20671;-74
2021/12/19 04:12:09;;;;;;;4.65;2.95;;;8.60;99.90;;;;;;5063008;28;20651;-74
2021/12/19 04:14:35;;;;;;;6.63;2.22;;;8.60;99.90;;;;;;5029678;28;20281;-75
2021/12/19 04:17:01;;;;;;;8.02;2.10;;;8.60;99.90;;;;;;5063598;28;20206;-73
2021/12/19 04:19:27;;;;;;;4.80;1.90;;;8.60;99.90;;;;;;5066058;28;20225;-74
2021/12/19 04:21:53;;;;;;;2.60;1.92;;;8.60;99.90;;;;;;5058306;28;20193;-73
2021/12/19 04:24:18;;;;;;;6.10;2.33;;;8.60;99.90;;;;;;5066932;28;20194;-74
2021/12/19 04:26:44;;;;;;;6.18;1.85;;;8.60;99.90;;;;;;5044607;28;20193;-74
2021/12/19 04:29:10;;;;;;;5.50;2.05;;;8.50;99.90;;;;;;5030476;28;20277;-73
2021/12/19 04:31:36;;;;;;;5.95;2.22;;;8.50;99.90;;;;;;5061779;28;20269;-74
2021/12/19 04:34:03;;;;;;;4.10;2.22;;;8.50;99.90;;;;;;5046902;28;20278;-74
2021/12/19 04:36:33;;;;;;;6.40;2.60;;;8.50;99.90;;;;;;5046699;28;20217;-75
2021/12/19 04:39:23;;;;;;;5.50;2.35;;;8.50;99.90;;;;;;5065669;28;20191;-75
2021/12/19 04:52:28;;;;;;;6.45;2.95;;;8.50;99.90;;;;;;5071136;28;20182;-74
2021/12/19 04:57:41;;;;;;;14.95;3.75;;;8.50;99.90;;;;;;5065037;28;20217;-75
2021/12/19 05:00:15;;;;;;;7.22;3.10;;;8.60;99.90;;;;;;5048358;28;20220;-74
2021/12/19 05:05:31;;;;;;;5.35;1.80;;;8.60;99.90;;;;;;5072011;28;20186;-74
2021/12/19 05:16:13;;;;;;;5.53;1.83;;;8.50;99.90;;;;;;5047653;28;20214;-74
2021/12/19 05:18:40;;;;;;;2.25;1.20;;;8.50;99.90;;;;;;5069848;28;20293;-74
2021/12/19 05:21:21;;;;;;;4.80;1.30;;;8.50;99.90;;;;;;5068152;28;20698;-74
2021/12/19 05:26:22;;;;;;;6.63;1.80;;;8.50;99.90;;;;;;5054184;28;20182;-74
2021/12/19 05:28:48;;;;;;;4.15;2.25;;;8.50;99.90;;;;;;5070158;28;20179;-73
2021/12/19 05:31:15;;;;;;;7.38;2.33;;;8.50;99.90;;;;;;5052290;28;20228;-74
2021/12/19 05:33:41;;;;;;;9.10;2.45;;;8.50;99.90;;;;;;5052583;28;20218;-73
2021/12/19 05:46:50;;;;;;;5.75;2.55;;;8.50;99.90;;;;;;5032711;28;20688;-74
2021/12/19 05:49:15;;;;;;;4.93;2.05;;;8.50;99.90;;;;;;5069843;28;20190;-74
2021/12/19 05:51:41;;;;;;;3.70;2.10;;;8.50;99.90;;;;;;5066586;28;20182;-73
2021/12/19 05:54:09;;;;;;;4.15;1.77;;;8.50;99.90;;;;;;5068134;28;20589;-73
2021/12/19 05:56:35;;;;;;;4.90;1.65;;;8.50;99.90;;;;;;5064242;28;20245;-74
2021/12/19 05:59:01;;;;;;;5.78;1.73;;;8.50;99.90;;;;;;5066597;28;20209;-74
2021/12/19 06:01:26;;;;;;;5.53;2.00;;;8.40;99.90;;;;;;5046464;28;20182;-74
2021/12/19 06:03:52;;;;;;;5.03;1.88;;;8.50;99.90;;;;;;5063946;28;20655;-74
2021/12/19 06:06:18;;;;;;;4.30;1.83;;;8.50;99.90;;;;;;5063046;28;20194;-73
2021/12/19 06:08:43;;;;;;;5.18;1.75;;;8.50;99.90;;;;;;5069626;28;20632;-73
2021/12/19 06:11:10;;;;;;;5.30;1.60;;;8.50;99.90;;;;;;5063339;28;20277;-73
2021/12/19 06:13:37;;;;;;;4.43;1.60;;;8.50;99.90;;;;;;5067344;28;20267;-73
2021/12/19 06:16:04;;;;;;;5.18;1.80;;;8.50;99.90;;;;;;5063991;28;20210;-73
2021/12/19 06:18:30;;;;;;;7.32;2.22;;;8.50;99.90;;;;;;5050438;28;20182;-74
2021/12/19 06:20:55;;;;;;;7.03;1.90;;;8.50;99.90;;;;;;5065208;28;20238;-73
2021/12/19 06:23:21;;;;;;;2.40;1.63;;;8.50;99.90;;;;;;5061201;28;20244;-73
2021/12/19 06:25:47;;;;;;;6.32;2.35;;;8.50;99.90;;;;;;5041184;28;20187;-74
2021/12/19 06:28:17;;;;;;;7.82;3.22;;;8.50;99.90;;;;;;5063807;28;20247;-73
2021/12/19 06:30:43;;;;;;;13.07;4.88;;;8.50;99.90;;;;;;5061587;28;20548;-73
2021/12/19 06:33:09;;;;;;;11.05;6.78;;;8.50;99.90;;;;;;5067770;28;20202;-72
2021/12/19 06:35:35;;;;;;;12.38;6.85;;;8.50;99.90;;;;;;5062920;28;20194;-74
2021/12/19 06:38:01;;;;;;;13.85;6.07;;;8.50;99.90;;;;;;5065416;28;20186;-72
2021/12/19 06:40:27;;;;;;;12.52;5.80;;;8.60;99.90;;;;;;5062648;28;20679;-72
2021/12/19 06:42:53;;;;;;;11.90;5.70;;;8.60;99.90;;;;;;5067997;28;22378;-71
2021/12/19 06:45:20;;;;;;;5.97;2.90;;;9.00;99.90;;;;;;5066525;28;21395;-73
2021/12/19 06:47:47;;;;;;;7.88;2.63;;;9.40;99.90;;;;;;5062066;28;20407;-73
2021/12/19 06:50:13;;;;;;;7.13;2.10;;;9.60;99.90;;;;;;5071926;28;20481;-73
2021/12/19 06:52:40;;;;;;;5.00;1.50;;;9.70;99.90;;;;;;5082984;28;20430;-74
2021/12/19 06:55:06;;;;;;;5.03;1.77;;;9.80;99.90;;;;;;5050704;28;20400;-73
2021/12/19 06:57:32;;;;;;;2.50;1.27;;;9.90;99.90;;;;;;5033281;28;20216;-74
2021/12/19 06:59:59;;;;;;;3.45;1.17;;;9.60;99.90;;;;;;5049495;28;20754;-72
2021/12/19 07:02:27;;;;;;;4.93;1.85;;;9.30;99.90;;;;;;5049904;28;20255;-73
2021/12/19 07:04:53;;;;;;;8.63;2.25;;;9.10;99.90;;;;;;5050053;28;20195;-72
2021/12/19 07:07:20;;;;;;;5.63;2.97;;;9.00;99.90;;;;;;5067237;28;20549;-73
2021/12/19 07:09:45;;;;;;;11.70;4.00;;;8.90;99.90;;;;;;5067816;28;20226;-74
2021/12/19 07:12:11;;;;;;;9.45;4.72;;;8.80;99.90;;;;;;5049914;28;20218;-71
2021/12/19 07:14:36;;;;;;;14.13;4.47;;;8.80;99.90;;;;;;5049598;28;20190;-71
2021/12/19 07:17:02;;;;;;;14.18;4.63;;;8.80;99.90;;;;;;5050087;28;20237;-72
2021/12/19 07:19:28;;;;;;;8.63;4.85;;;8.80;99.90;;;;;;5056918;28;20182;-74
2021/12/19 07:21:54;;;;;;;8.30;4.22;;;8.70;99.90;;;;;;5067049;28;20228;-73
2021/12/19 07:24:19;;;;;;;6.68;4.40;;;8.70;99.90;;;;;;5069093;28;20560;-74
2021/12/19 07:26:45;;;;;;;8.30;5.10;;;8.70;99.90;;;;;;5068026;28;20498;-73
2021/12/19 07:29:11;;;;;;;8.10;4.60;;;9.10;99.90;;;;;;5036508;28;21261;-73
2021/12/19 07:31:38;;;;;;;10.70;4.30;;;9.50;99.90;;;;;;5069881;28;20431;-73
2021/12/19 07:34:07;;;;;;;7.57;4.50;;;9.70;99.90;;;;;;5048266;28;20426;-74
2021/12/19 07:36:40;;;;;;;7.07;3.60;;;9.90;99.90;;;;;;5065693;28;20427;-73
2021/12/19 07:39:10;;;;;;;8.50;3.70;;;9.90;99.90;;;;;;5065424;28;20391;-74
2021/12/19 07:41:36;;;;;;;8.32;4.35;;;10.00;99.90;;;;;;5066114;28;20418;-73
2021/12/19 07:44:02;;;;;;;9.23;4.23;;;10.00;99.90;;;;;;5044909;28;20419;-76
2021/12/19 07:46:28;;;;;;;10.60;3.97;;;10.10;99.90;;;;;;5062088;28;20419;-74
2021/12/19 07:48:53;;;;;;;10.00;4.20;;;10.20;99.90;;;;;;5043898;28;20407;-74
2021/12/19 07:51:19;;;;;;;11.07;5.17;;;10.20;99.90;;;;;;5064251;28;20415;-76
2021/12/19 07:53:45;;;;;;;8.57;4.95;;;10.20;99.90;;;;;;5064468;28;20418;-75
2021/12/19 07:56:11;;;;;;;10.65;5.40;;;10.30;99.90;;;;;;5062652;28;20415;-74
2021/12/19 07:58:37;;;;;;;11.43;5.50;;;10.20;99.90;;;;;;5043642;28;20476;-74
2021/12/19 08:01:03;;;;;;;11.18;5.78;;;10.30;99.90;;;;;;5045952;28;20935;-73
2021/12/19 08:03:28;;;;;;;10.88;5.30;;;10.30;99.90;;;;;;5064832;28;20402;-73
2021/12/19 08:05:54;;;;;;;6.15;3.53;;;10.40;99.90;;;;;;5061637;28;20476;-74
2021/12/19 08:08:26;;;;;;;8.20;3.33;;;10.40;99.90;;;;;;5062863;28;20408;-74
2021/12/19 08:13:37;;;;;;;4.95;2.58;;;10.40;99.90;;;;;;5062184;28;20884;-76
2021/12/19 08:16:03;;;;;;;6.53;3.30;;;10.40;99.90;;;;;;5047162;28;20415;-76
2021/12/19 08:18:29;;;;;;;5.78;2.50;;;10.40;99.90;;;;;;5061460;28;20927;-75
2021/12/19 08:20:54;;;;;;;7.63;1.80;;;10.40;99.90;;;;;;5063194;28;20465;-76
2021/12/19 08:23:20;;;;;;;5.15;1.80;;;10.40;99.90;;;;;;5059762;28;20399;-76
2021/12/19 08:25:46;;;;;;;2.83;1.40;;;10.40;99.90;;;;;;5063323;28;20490;-75
2021/12/19 08:28:11;;;;;;;3.70;1.30;;;10.50;99.90;;;;;;5062806;28;20415;-76
2021/12/19 08:30:37;;;;;;;2.63;1.27;;;10.50;99.90;;;;;;5063150;28;20417;-75
2021/12/19 08:33:03;;;;;;;4.33;1.30;;;10.40;99.90;;;;;;5063789;28;20489;-76
2021/12/19 08:35:28;;;;;;;5.07;1.70;;;10.50;99.90;;;;;;5061075;28;20404;-74
2021/12/19 08:37:54;;;;;;;5.70;1.67;;;10.50;99.90;;;;;;5061454;28;20422;-75
2021/12/19 08:40:22;;;;;;;7.38;2.10;;;10.50;99.90;;;;;;5054654;28;20496;-74
2021/12/19 08:42:48;;;;;;;8.57;2.53;;;10.50;99.90;;;;;;5059255;28;20408;-73
2021/12/19 08:45:15;;;;;;;5.07;2.78;;;10.50;99.90;;;;;;5066649;28;20444;-75
2021/12/19 08:47:41;;;;;;;7.53;3.55;;;10.50;99.90;;;;;;5062109;28;20426;-76
2021/12/19 08:50:09;;;;;;;15.23;7.22;;;10.50;99.90;;;;;;5065985;28;20396;-75
2021/12/19 08:52:35;;;;;;;11.90;4.97;;;10.50;99.90;;;;;;5070086;28;20433;-74
2021/12/19 08:55:01;;;;;;;9.10;4.40;;;10.50;99.90;;;;;;5072675;28;20893;-77
2021/12/19 08:57:28;;;;;;;10.18;4.45;;;10.50;99.90;;;;;;5067491;28;20493;-75
2021/12/19 08:59:53;;;;;;;11.90;3.92;;;10.50;99.90;;;;;;5068157;28;20411;-75
2021/12/19 09:02:19;;;;;;;11.10;4.25;;;10.50;99.90;;;;;;5075716;28;20419;-77
2021/12/19 09:04:44;;;;;;;10.97;3.90;;;10.50;99.90;;;;;;5067732;28;20403;-74
2021/12/19 09:07:10;;;;;;;13.33;3.87;;;10.50;99.90;;;;;;5067532;28;20442;-75
2021/12/19 09:09:36;;;;;;;10.98;3.90;;;10.50;99.90;;;;;;5066171;28;20908;-74
2021/12/19 09:12:01;;;;;;;10.67;3.73;;;10.60;99.90;;;;;;5072669;28;20453;-75
2021/12/19 09:14:27;;;;;;;18.25;6.40;;;10.60;99.90;;;;;;5075442;28;20398;-75
2021/12/19 09:16:53;;;;;;;15.38;4.68;;;10.60;99.90;;;;;;5069928;28;20419;-75
2021/12/19 09:19:21;;;;;;;15.33;4.87;;;10.60;99.90;;;;;;5075765;28;20799;-75
2021/12/19 09:21:46;;;;;;;20.52;5.80;;;10.60;99.90;;;;;;5063717;28;20567;-75
2021/12/19 09:24:12;;;;;;;19.27;6.03;;;10.70;99.90;;;;;;5068499;28;20904;-74
2021/12/19 09:26:38;;;;;;;17.20;6.25;;;10.70;99.90;;;;;;5066262;28;20400;-73
2021/12/19 09:29:07;;;;;;;16.90;6.00;;;10.70;99.90;;;;;;5068329;28;20407;-75
2021/12/19 09:31:33;;;;;;;17.75;5.28;;;10.70;99.90;;;;;;5067213;28;20514;-74
2021/12/19 09:33:58;;;;;;;14.73;5.00;;;10.70;99.90;;;;;;5069039;28;20498;-76
2021/12/19 09:36:24;;;;;;;14.40;5.27;;;10.70;99.90;;;;;;5067173;28;20418;-73
2021/12/19 09:38:50;;;;;;;16.90;5.28;;;10.70;99.90;;;;;;5069498;28;20904;-76
2021/12/19 09:41:28;;;;;;;17.47;5.30;;;10.70;99.90;;;;;;5063573;28;20412;-73
2021/12/19 09:43:59;;;;;;;17.42;5.28;;;10.70;99.90;;;;;;5023004;28;20436;-75
2021/12/19 09:46:29;;;;;;;18.43;6.17;;;10.70;99.90;;;;;;5061702;28;20488;-75
2021/12/19 09:48:56;;;;;;;22.73;5.97;;;10.70;99.90;;;;;;5058774;28;20431;-75
2021/12/19 09:51:21;;;;;;;16.48;5.30;;;10.80;99.90;;;;;;5050874;28;20417;-74
2021/12/19 09:53:47;;;;;;;20.00;5.50;;;10.80;99.90;;;;;;5031894;28;20472;-75
2021/12/19 09:56:13;;;;;;;15.32;4.60;;;10.80;99.90;;;;;;5051553;28;20405;-74
2021/12/19 09:58:40;;;;;;;23.90;5.30;;;10.80;99.90;;;;;;5050077;28;20399;-74
2021/12/19 10:01:10;;;;;;;19.45;5.05;;;10.80;99.90;;;;;;5049748;28;20453;-73
2021/12/19 10:03:36;;;;;;;16.42;4.63;;;10.80;99.90;;;;;;5046330;28;21060;-72
2021/12/19 10:06:22;;;;;;;18.75;4.50;;;10.80;99.90;;;;;;5047754;28;20413;-74
2021/12/19 10:08:53;;;;;;;17.88;4.15;;;10.80;99.90;;;;;;5048419;28;20420;-75
2021/12/19 10:14:27;;;;;;;15.77;4.20;;;10.80;99.90;;;;;;5074841;28;20411;-73
2021/12/19 10:16:53;;;;;;;21.23;5.10;;;10.80;99.90;;;;;;5059125;28;20514;-74
2021/12/19 10:19:19;;;;;;;17.57;4.90;;;10.80;99.90;;;;;;5041815;28;20407;-75
2021/12/19 10:21:44;;;;;;;18.05;5.25;;;10.90;99.90;;;;;;5056675;28;20397;-73
2021/12/19 10:24:31;;;;;;;22.43;6.23;;;10.90;99.90;;;;;;5057865;28;20399;-75
2021/12/19 10:26:58;;;;;;;17.73;5.40;;;10.90;99.90;;;;;;5041078;28;20419;-74
2021/12/19 10:29:41;;;;;;;17.88;5.10;;;10.90;99.90;;;;;;5040625;28;20473;-73
2021/12/19 10:32:07;;;;;;;19.20;5.43;;;10.90;99.90;;;;;;5058620;28;20399;-73
2021/12/19 10:34:33;;;;;;;18.15;4.63;;;10.90;99.90;;;;;;5040482;28;20468;-74
2021/12/19 10:36:58;;;;;;;20.40;5.53;;;11.00;99.90;;;;;;5055501;28;20420;-74
2021/12/19 10:39:33;;;;;;;18.87;4.20;;;10.90;99.90;;;;;;5035778;28;20890;-76
2021/12/19 10:42:00;;;;;;;16.80;4.87;;;10.90;99.90;;;;;;5063766;28;21014;-74
2021/12/19 10:47:40;;;;;;;16.10;4.35;;;10.90;99.90;;;;;;5066969;28;20792;-74
2021/12/19 10:50:05;;;;;;;14.70;3.95;;;10.90;99.90;;;;;;5064070;28;20450;-74
2021/12/19 10:52:38;;;;;;;15.67;4.77;;;10.90;99.90;;;;;;5065779;28;20442;-75
2021/12/19 10:55:10;;;;;;;13.73;4.43;;;10.90;99.90;;;;;;5066402;28;20419;-75
2021/12/19 10:57:40;;;;;;;14.43;3.85;;;10.90;99.90;;;;;;5066648;28;20894;-75
2021/12/19 11:00:10;;;;;;;10.38;3.53;;;10.90;99.90;;;;;;5065775;28;20422;-74
2021/12/19 11:02:37;;;;;;;10.95;3.08;;;10.90;99.90;;;;;;5067064;28;20495;-74
2021/12/19 11:05:04;;;;;;;10.18;2.55;;;10.90;99.90;;;;;;5066061;28;20780;-74
2021/12/19 11:07:30;;;;;;;8.00;2.23;;;10.90;99.90;;;;;;5065614;28;20873;-74
2021/12/19 11:09:55;;;;;;;8.05;2.30;;;10.90;99.90;;;;;;5065868;28;20422;-74
2021/12/19 11:12:21;;;;;;;8.20;2.53;;;10.90;99.90;;;;;;5078152;28;20438;-75
2021/12/19 11:14:48;;;;;;;7.78;2.30;;;10.90;99.90;;;;;;5046850;28;20459;-76
2021/12/19 11:17:26;;;;;;;9.55;2.80;;;10.90;99.90;;;;;;5057101;28;20860;-74
2021/12/19 11:19:56;;;;;;;8.80;2.40;;;10.90;99.90;;;;;;5073933;28;20427;-75
2021/12/19 11:22:26;;;;;;;9.52;2.40;;;10.90;99.90;;;;;;5068432;28;20403;-75
2021/12/19 11:24:57;;;;;;;10.35;3.30;;;10.90;99.90;;;;;;5050475;28;20419;-76
2021/12/19 11:27:23;;;;;;;9.60;3.20;;;10.90;99.90;;;;;;5073545;28;20406;-76
2021/12/19 11:29:53;;;;;;;8.77;3.10;;;10.90;99.90;;;;;;5050533;28;20416;-75
2021/12/19 11:32:24;;;;;;;11.05;2.50;;;10.90;99.90;;;;;;5042479;28;21315;-73
2021/12/19 11:35:00;;;;;;;11.40;2.50;;;10.90;99.90;;;;;;5045246;28;21230;-75
2021/12/19 11:37:53;;;;;;;9.95;2.95;;;10.90;99.90;;;;;;5064740;28;20431;-77
2021/12/19 11:40:20;;;;;;;9.23;3.30;;;10.90;99.90;;;;;;5079333;28;20760;-74
2021/12/19 11:42:46;;;;;;;11.50;3.17;;;10.90;99.90;;;;;;5073102;28;21085;-75
2021/12/19 11:47:58;;;;;;;15.63;3.97;;;10.90;99.90;;;;;;5067046;28;20440;-76
2021/12/19 11:50:28;;;;;;;15.52;4.00;;;10.90;99.90;;;;;;5052036;28;20475;-76
2021/12/19 11:52:57;;;;;;;13.18;4.35;;;10.90;99.90;;;;;;5078870;28;20724;-76
2021/12/19 11:55:38;;;;;;;20.13;4.43;;;10.90;99.90;;;;;;5073087;28;20438;-77
2021/12/19 11:58:11;;;;;;;13.40;4.13;;;10.90;99.90;;;;;;5068253;28;20419;-76
2021/12/19 12:00:52;;;;;;;11.75;4.13;;;10.90;99.90;;;;;;5075082;28;20876;-76
2021/12/19 12:03:21;;;;;;;19.13;4.65;;;10.90;99.90;;;;;;5068038;28;20520;-78
2021/12/19 12:05:51;;;;;;;18.13;4.53;;;11.00;99.90;;;;;;5078860;28;20496;-76
2021/12/19 12:08:19;;;;;;;18.17;5.15;;;11.00;99.90;;;;;;5062631;28;20418;-77
2021/12/19 12:10:51;;;;;;;21.35;5.07;;;11.00;99.90;;;;;;5053104;28;20403;-77
2021/12/19 12:13:29;;;;;;;17.70;6.20;;;11.00;99.90;;;;;;5048444;28;20415;-76
2021/12/19 12:16:30;;;;;;;16.58;4.65;;;11.00;99.90;;;;;;5049719;28;20419;-75
2021/12/19 12:19:02;;;;;;;19.33;4.70;;;11.00;99.90;;;;;;5064941;28;20441;-77
2021/12/19 12:21:31;;;;;;;17.52;4.47;;;11.00;99.90;;;;;;5047404;28;21055;-77
2021/12/19 12:24:11;;;;;;;21.25;4.97;;;11.00;99.90;;;;;;5051723;28;20548;-75
2021/12/19 12:26:53;;;;;;;14.23;4.43;;;11.00;99.90;;;;;;5075711;28;20417;-76
2021/12/19 12:29:20;;;;;;;16.42;3.92;;;11.00;99.90;;;;;;5069863;28;20399;-74
2021/12/19 12:31:47;;;;;;;15.35;3.78;;;11.00;99.90;;;;;;5046970;28;20418;-76
2021/12/19 12:34:15;;;;;;;14.43;3.80;;;11.00;99.90;;;;;;5047608;28;20749;-73
2021/12/19 12:36:42;;;;;;;18.17;3.85;;;11.00;99.90;;;;;;5073360;28;20421;-75
2021/12/19 12:39:15;;;;;;;16.60;3.67;;;11.00;99.90;;;;;;5068046;28;20407;-75
2021/12/19 12:44:15;;;;;;;13.88;3.35;;;11.00;99.90;;;;;;5059951;28;20409;-76
2021/12/19 12:46:42;;;;;;;12.53;3.40;;;11.00;99.90;;;;;;5076756;28;20415;-75
2021/12/19 12:49:16;;;;;;;12.88;3.20;;;11.00;99.90;;;;;;5063599;28;20411;-76
2021/12/19 12:51:49;;;;;;;10.82;2.85;;;11.00;99.90;;;;;;5045890;28;20895;-75
2021/12/19 12:54:25;;;;;;;13.43;3.22;;;11.00;99.90;;;;;;5046665;28;21003;-76
2021/12/19 12:56:57;;;;;;;13.82;3.13;;;11.00;99.90;;;;;;5044780;28;20455;-77
2021/12/19 12:59:28;;;;;;;14.88;2.88;;;11.00;99.90;;;;;;5064341;28;20502;-75
2021/12/19 13:02:09;;;;;;;9.43;2.00;;;11.00;99.90;;;;;;5053921;28;20488;-75
2021/12/19 13:04:36;;;;;;;7.70;1.60;;;11.00;99.90;;;;;;5059754;28;20472;-75
2021/12/19 13:07:04;;;;;;;7.57;2.38;;;11.00;99.90;;;;;;5053166;28;20416;-75
2021/12/19 13:09:46;;;;;;;4.95;1.42;;;11.00;99.90;;;;;;5040832;28;20441;-75
2021/12/19 13:12:21;;;;;;;6.87;2.73;;;11.00;99.90;;;;;;5054194;28;20495;-75
2021/12/19 13:14:48;;;;;;;9.65;3.67;;;11.00;99.90;;;;;;5038241;28;20924;-75
2021/12/19 13:17:20;;;;;;;6.73;1.40;;;11.10;99.90;;;;;;5055165;28;20411;-74
2021/12/19 13:19:47;;;;;;;4.50;1.58;;;11.10;99.90;;;;;;5059166;28;20417;-74
2021/12/19 13:22:32;;;;;;;4.30;1.70;;;11.10;99.90;;;;;;5063716;28;20434;-74
2021/12/19 13:25:05;;;;;;;5.40;1.48;;;11.20;99.90;;;;;;5061854;28;20549;-74
2021/12/19 13:27:34;;;;;;;4.20;1.75;;;11.20;99.90;;;;;;5072007;28;20399;-75
2021/12/19 13:30:01;;;;;;;5.25;1.60;;;11.20;99.90;;;;;;5062263;28;20426;-73
2021/12/19 13:32:32;;;;;;;5.05;1.80;;;11.20;99.90;;;;;;5057164;28;20419;-73
2021/12/19 13:35:00;;;;;;;4.67;1.33;;;11.20;99.90;;;;;;5042200;28;20418;-75
2021/12/19 13:37:26;;;;;;;6.07;1.70;;;11.10;99.90;;;;;;5060340;28;20432;-74
2021/12/19 13:40:13;;;;;;;4.97;1.50;;;11.10;99.90;;;;;;5065481;28;20413;-76
2021/12/19 13:42:48;;;;;;;5.68;1.80;;;11.10;99.90;;;;;;5074930;28;20424;-74
2021/12/19 13:45:30;;;;;;;6.47;2.30;;;11.10;99.90;;;;;;5069176;28;20489;-75
2021/12/19 13:47:58;;;;;;;8.00;2.33;;;11.10;99.90;;;;;;5072369;28;20461;-77
2021/12/19 13:50:25;;;;;;;9.27;2.30;;;11.10;99.90;;;;;;5056222;28;20762;-77
2021/12/19 13:52:51;;;;;;;7.10;2.05;;;11.10;99.90;;;;;;5072555;28;20423;-77
2021/12/19 13:55:17;;;;;;;8.27;2.10;;;11.00;99.90;;;;;;5053216;28;20434;-75
2021/12/19 13:57:45;;;;;;;8.63;2.13;;;11.00;99.90;;;;;;5042528;28;20420;-75
2021/12/19 14:00:30;;;;;;;9.97;2.80;;;11.00;99.90;;;;;;5063521;28;20733;-76
2021/12/19 14:02:56;;;;;;;10.40;2.60;;;11.00;99.90;;;;;;5067837;28;20411;-76
2021/12/19 14:05:39;;;;;;;12.18;2.90;;;11.00;99.90;;;;;;5076160;28;20420;-76